sensor_id;sensor_type;location;lat;lon;timestamp;temperature;humidity
27900;DHT22;15243;50.726;7.080;2022-09-29T06:25:25;5.70;99.90
27900;DHT22;15243;50.726;7.080;2022-09-29T06:27:52;5.70;99.90
27900;DHT22;15243;50.726;7.080;2022-09-29T06:30:19;5.70;99.90
27900;DHT22;15243;50.726;7.080;2022-09-29T06:32:46;5.70;99.90
27900;DHT22;15243;50.726;7.080;2022-09-29T06:35:13;5.80;99.90
27900;DHT22;15243;50.726;7.080;2022-09-29T06:37:59;5.90;99.90
27900;DHT22;15243;50.726;7.080;2022-09-29T06:40:28;5.90;99.90
27900;DHT22;15243;50.726;7.080;2022-09-29T06:42:55;5.90;99.90
27900;DHT22;15243;50.726;7.080;2022-09-29T06:45:21;6.00;99.90
27900;DHT22;15243;50.726;7.080;2022-09-29T06:47:48;6.10;99.90
27900;DHT22;15243;50.726;7.080;2022-09-29T06:50:15;6.10;99.90
27900;DHT22;15243;50.726;7.080;2022-09-29T06:52:44;6.20;99.90
27900;DHT22;15243;50.726;7.080;2022-09-29T06:55:28;6.20;99.90
27900;DHT22;15243;50.726;7.080;2022-09-29T06:57:54;6.30;99.90
27900;DHT22;15243;50.726;7.080;2022-09-29T07:00:28;6.30;99.90
27900;DHT22;15243;50.726;7.080;2022-09-29T07:02:55;6.40;99.90
27900;DHT22;15243;50.726;7.080;2022-09-29T07:05:21;6.40;99.90
27900;DHT22;15243;50.726;7.080;2022-09-29T07:07:48;6.50;99.90
27900;DHT22;15243;50.726;7.080;2022-09-29T07:10:20;6.60;99.90
27900;DHT22;15243;50.726;7.080;2022-09-29T07:12:47;6.60;99.90
27900;DHT22;15243;50.726;7.080;2022-09-29T07:15:13;6.60;99.90
27900;DHT22;15243;50.726;7.080;2022-09-29T07:17:40;6.70;99.90
27900;DHT22;15243;50.726;7.080;2022-09-29T07:20:07;6.80;99.90
27900;DHT22;15243;50.726;7.080;2022-09-29T07:22:34;6.90;99.90
27900;DHT22;15243;50.726;7.080;2022-09-29T07:25:01;6.90;99.90
27900;DHT22;15243;50.726;7.080;2022-09-29T07:27:28;7.00;99.90
27900;DHT22;15243;50.726;7.080;2022-09-29T07:29:55;7.00;99.90
27900;DHT22;15243;50.726;7.080;2022-09-29T07:32:30;7.10;99.90
27900;DHT22;15243;50.726;7.080;2022-09-29T07:35:00;7.20;99.90
27900;DHT22;15243;50.726;7.080;2022-09-29T07:37:27;7.20;99.90
27900;DHT22;15243;50.726;7.080;2022-09-29T07:39:54;7.40;99.90
27900;DHT22;15243;50.726;7.080;2022-09-29T07:42:21;7.40;99.90
27900;DHT22;15243;50.726;7.080;2022-09-29T07:44:48;7.50;99.90
27900;DHT22;15243;50.726;7.080;2022-09-29T07:47:18;7.40;99.90
27900;DHT22;15243;50.726;7.080;2022-09-29T07:49:45;7.60;99.90
27900;DHT22;15243;50.726;7.080;2022-09-29T07:52:12;7.70;99.90
27900;DHT22;15243;50.726;7.080;2022-09-29T07:54:39;7.80;99.90
27900;DHT22;15243;50.726;7.080;2022-09-29T07:57:06;7.90;99.90
27900;DHT22;15243;50.726;7.080;2022-09-29T07:59:33;8.00;99.90
27900;DHT22;15243;50.726;7.080;2022-09-29T08:02:00;8.00;99.90
27900;DHT22;15243;50.726;7.080;2022-09-29T08:04:28;7.90;99.90
27900;DHT22;15243;50.726;7.080;2022-09-29T08:06:55;8.10;99.90
27900;DHT22;15243;50.726;7.080;2022-09-29T08:09:22;8.20;99.90
27900;DHT22;15243;50.726;7.080;2022-09-29T08:12:03;8.30;99.90
27900;DHT22;15243;50.726;7.080;2022-09-29T08:14:34;8.30;99.90
27900;DHT22;15243;50.726;7.080;2022-09-29T08:17:01;8.60;99.90
27900;DHT22;15243;50.726;7.080;2022-09-29T08:19:27;8.70;99.90
27900;DHT22;15243;50.726;7.080;2022-09-29T08:21:54;8.70;99.90
27900;DHT22;15243;50.726;7.080;2022-09-29T08:24:30;8.80;99.90
27900;DHT22;15243;50.726;7.080;2022-09-29T08:27:24;8.90;99.90
27900;DHT22;15243;50.726;7.080;2022-09-29T08:30:01;9.00;99.90
27900;DHT22;15243;50.726;7.080;2022-09-29T08:32:49;9.10;99.90
27900;DHT22;15243;50.726;7.080;2022-09-29T08:35:22;9.10;99.90
27900;DHT22;15243;50.726;7.080;2022-09-29T08:37:53;9.30;99.90
27900;DHT22;15243;50.726;7.080;2022-09-29T08:41:03;9.30;99.90
27900;DHT22;15243;50.726;7.080;2022-09-29T08:43:38;9.40;99.90
27900;DHT22;15243;50.726;7.080;2022-09-29T08:46:11;9.40;99.90
27900;DHT22;15243;50.726;7.080;2022-09-29T08:48:56;9.50;99.90
27900;DHT22;15243;50.726;7.080;2022-09-29T08:51:33;9.60;99.90
27900;DHT22;15243;50.726;7.080;2022-09-29T08:54:30;9.60;99.90
27900;DHT22;15243;50.726;7.080;2022-09-29T08:57:05;9.80;99.90
27900;DHT22;15243;50.726;7.080;2022-09-29T08:59:33;9.80;99.90
27900;DHT22;15243;50.726;7.080;2022-09-29T09:07:08;9.80;99.90
27900;DHT22;15243;50.726;7.080;2022-09-29T09:13:22;10.10;99.90
27900;DHT22;15243;50.726;7.080;2022-09-29T09:18:37;10.20;99.90
27900;DHT22;15243;50.726;7.080;2022-09-29T09:21:19;10.30;99.90
27900;DHT22;15243;50.726;7.080;2022-09-29T09:24:01;10.20;99.90
27900;DHT22;15243;50.726;7.080;2022-09-29T09:26:40;10.50;99.90
27900;DHT22;15243;50.726;7.080;2022-09-29T09:29:21;10.50;99.90
27900;DHT22;15243;50.726;7.080;2022-09-29T09:42:28;11.00;99.90
27900;DHT22;15243;50.726;7.080;2022-09-29T10:03:59;12.20;99.90
27900;DHT22;15243;50.726;7.080;2022-09-29T10:06:32;12.40;99.90
27900;DHT22;15243;50.726;7.080;2022-09-29T10:09:03;12.60;99.90
27900;DHT22;15243;50.726;7.080;2022-09-29T10:11:31;12.80;99.90
27900;DHT22;15243;50.726;7.080;2022-09-29T10:14:02;12.80;99.90
27900;DHT22;15243;50.726;7.080;2022-09-29T10:16:45;12.70;99.90
27900;DHT22;15243;50.726;7.080;2022-09-29T10:19:19;13.00;99.90
27900;DHT22;15243;50.726;7.080;2022-09-29T10:21:46;13.20;99.90
27900;DHT22;15243;50.726;7.080;2022-09-29T10:24:22;13.40;99.90
27900;DHT22;15243;50.726;7.080;2022-09-29T10:26:52;13.30;99.90
27900;DHT22;15243;50.726;7.080;2022-09-29T10:29:39;13.40;99.90
27900;DHT22;15243;50.726;7.080;2022-09-29T10:32:15;13.60;99.90
27900;DHT22;15243;50.726;7.080;2022-09-29T10:34:50;13.70;99.90
27900;DHT22;15243;50.726;7.080;2022-09-29T10:37:23;13.70;99.90
27900;DHT22;15243;50.726;7.080;2022-09-29T10:40:00;14.00;99.90
27900;DHT22;15243;50.726;7.080;2022-09-29T10:42:34;14.20;99.90
27900;DHT22;15243;50.726;7.080;2022-09-29T10:45:20;14.30;99.90
27900;DHT22;15243;50.726;7.080;2022-09-29T10:50:28;14.70;99.90
27900;DHT22;15243;50.726;7.080;2022-09-29T10:55:54;14.50;99.90
27900;DHT22;15243;50.726;7.080;2022-09-29T10:58:35;14.40;99.90
27900;DHT22;15243;50.726;7.080;2022-09-29T11:01:23;14.40;99.90
27900;DHT22;15243;50.726;7.080;2022-09-29T11:04:04;14.00;99.90
27900;DHT22;15243;50.726;7.080;2022-09-29T11:06:34;14.00;99.90
27900;DHT22;15243;50.726;7.080;2022-09-29T11:11:51;13.80;99.90
27900;DHT22;15243;50.726;7.080;2022-09-29T11:14:46;14.00;99.90
27900;DHT22;15243;50.726;7.080;2022-09-29T11:17:30;13.90;99.90
27900;DHT22;15243;50.726;7.080;2022-09-29T11:20:00;14.30;99.90
27900;DHT22;15243;50.726;7.080;2022-09-29T11:25:20;14.40;99.90
27900;DHT22;15243;50.726;7.080;2022-09-29T11:50:29;15.60;99.90
27900;DHT22;15243;50.726;7.080;2022-09-29T11:53:06;15.70;99.90
27900;DHT22;15243;50.726;7.080;2022-09-29T12:07:32;16.30;99.90
27900;DHT22;15243;50.726;7.080;2022-09-29T12:13:19;16.70;99.90
27900;DHT22;15243;50.726;7.080;2022-09-29T12:15:55;16.90;99.90
27900;DHT22;15243;50.726;7.080;2022-09-29T12:18:34;16.90;99.90
27900;DHT22;15243;50.726;7.080;2022-09-29T12:21:03;17.20;99.90
27900;DHT22;15243;50.726;7.080;2022-09-29T12:23:33;17.20;99.90
27900;DHT22;15243;50.726;7.080;2022-09-29T12:26:12;17.10;99.90
27900;DHT22;15243;50.726;7.080;2022-09-29T12:29:05;17.30;99.90
27900;DHT22;15243;50.726;7.080;2022-09-29T12:31:37;17.20;99.90
27900;DHT22;15243;50.726;7.080;2022-09-29T12:34:21;17.40;99.90
27900;DHT22;15243;50.726;7.080;2022-09-29T12:37:02;17.70;99.90
27900;DHT22;15243;50.726;7.080;2022-09-29T12:54:08;17.30;99.90
27900;DHT22;15243;50.726;7.080;2022-09-29T12:57:04;17.20;99.90
27900;DHT22;15243;50.726;7.080;2022-09-29T13:11:03;16.70;99.90
27900;DHT22;15243;50.726;7.080;2022-09-29T13:13:54;17.30;99.90
27900;DHT22;15243;50.726;7.080;2022-09-29T13:22:32;17.60;99.90
27900;DHT22;15243;50.726;7.080;2022-09-29T13:25:21;18.20;99.90
27900;DHT22;15243;50.726;7.080;2022-09-29T13:27:50;18.50;99.90
27900;DHT22;15243;50.726;7.080;2022-09-29T13:30:24;17.60;99.90
27900;DHT22;15243;50.726;7.080;2022-09-29T13:35:43;17.10;99.90
27900;DHT22;15243;50.726;7.080;2022-09-29T13:38:22;16.70;99.90
27900;DHT22;15243;50.726;7.080;2022-09-29T13:49:14;15.60;99.90
27900;DHT22;15243;50.726;7.080;2022-09-29T13:54:36;15.70;99.90
27900;DHT22;15243;50.726;7.080;2022-09-29T13:59:44;15.80;99.90
27900;DHT22;15243;50.726;7.080;2022-09-29T14:04:55;16.90;99.90
27900;DHT22;15243;50.726;7.080;2022-09-29T14:07:47;17.40;99.90
27900;DHT22;15243;50.726;7.080;2022-09-29T14:13:05;16.70;99.90
27900;DHT22;15243;50.726;7.080;2022-09-29T14:15:51;16.30;99.90
27900;DHT22;15243;50.726;7.080;2022-09-29T14:18:35;15.90;99.90
27900;DHT22;15243;50.726;7.080;2022-09-29T14:21:09;15.90;99.90
27900;DHT22;15243;50.726;7.080;2022-09-29T14:26:44;15.70;99.90
27900;DHT22;15243;50.726;7.080;2022-09-29T14:29:32;16.80;99.90
27900;DHT22;15243;50.726;7.080;2022-09-29T14:32:01;17.70;99.90
27900;DHT22;15243;50.726;7.080;2022-09-29T14:34:30;16.90;99.90
27900;DHT22;15243;50.726;7.080;2022-09-29T14:37:00;16.60;99.90
27900;DHT22;15243;50.726;7.080;2022-09-29T14:39:28;17.40;99.90
27900;DHT22;15243;50.726;7.080;2022-09-29T14:41:56;18.60;99.90
27900;DHT22;15243;50.726;7.080;2022-09-29T14:44:29;20.10;99.90
27900;DHT22;15243;50.726;7.080;2022-09-29T14:47:30;20.50;99.90
27900;DHT22;15243;50.726;7.080;2022-09-29T14:53:20;21.60;97.00
27900;DHT22;15243;50.726;7.080;2022-09-29T15:04:43;20.70;95.90
27900;DHT22;15243;50.726;7.080;2022-09-29T15:07:14;19.40;98.00
27900;DHT22;15243;50.726;7.080;2022-09-29T15:09:53;18.70;99.90
27900;DHT22;15243;50.726;7.080;2022-09-29T15:12:25;18.10;99.90
27900;DHT22;15243;50.726;7.080;2022-09-29T15:14:54;17.40;99.90
27900;DHT22;15243;50.726;7.080;2022-09-29T15:20:30;16.40;99.90
27900;DHT22;15243;50.726;7.080;2022-09-29T15:25:53;15.80;99.90
27900;DHT22;15243;50.726;7.080;2022-09-29T15:28:31;15.60;99.90
27900;DHT22;15243;50.726;7.080;2022-09-29T15:31:02;15.40;99.90
27900;DHT22;15243;50.726;7.080;2022-09-29T15:33:34;15.20;99.90
27900;DHT22;15243;50.726;7.080;2022-09-29T15:36:16;15.10;99.90
27900;DHT22;15243;50.726;7.080;2022-09-29T15:38:44;14.90;99.90
27900;DHT22;15243;50.726;7.080;2022-09-29T15:43:41;14.70;99.90
27900;DHT22;15243;50.726;7.080;2022-09-29T15:46:18;14.70;99.90
27900;DHT22;15243;50.726;7.080;2022-09-29T15:51:38;14.50;99.90
27900;DHT22;15243;50.726;7.080;2022-09-29T15:54:06;14.30;99.90
27900;DHT22;15243;50.726;7.080;2022-09-29T15:56:42;14.20;99.90
27900;DHT22;15243;50.726;7.080;2022-09-29T15:59:53;14.20;99.90
27900;DHT22;15243;50.726;7.080;2022-09-29T16:02:37;14.00;99.90
27900;DHT22;15243;50.726;7.080;2022-09-29T16:05:12;13.90;99.90
27900;DHT22;15243;50.726;7.080;2022-09-29T16:08:33;13.80;99.90
27900;DHT22;15243;50.726;7.080;2022-09-29T16:10:41;13.70;99.90
27900;DHT22;15243;50.726;7.080;2022-09-29T16:13:19;13.60;99.90
27900;DHT22;15243;50.726;7.080;2022-09-29T16:15:48;13.50;99.90
27900;DHT22;15243;50.726;7.080;2022-09-29T16:18:22;13.50;99.90
27900;DHT22;15243;50.726;7.080;2022-09-29T16:20:53;13.40;99.90
27900;DHT22;15243;50.726;7.080;2022-09-29T16:23:42;13.30;99.90
27900;DHT22;15243;50.726;7.080;2022-09-29T16:26:15;13.30;99.90
27900;DHT22;15243;50.726;7.080;2022-09-29T16:31:30;13.10;99.90
27900;DHT22;15243;50.726;7.080;2022-09-29T16:33:59;13.00;99.90
27900;DHT22;15243;50.726;7.080;2022-09-29T16:36:29;12.90;99.90
27900;DHT22;15243;50.726;7.080;2022-09-29T16:39:02;12.80;99.90
27900;DHT22;15243;50.726;7.080;2022-09-29T16:41:34;12.70;99.90
27900;DHT22;15243;50.726;7.080;2022-09-29T16:49:28;12.30;99.90
27900;DHT22;15243;50.726;7.080;2022-09-29T16:56:25;12.40;99.90
27900;DHT22;15243;50.726;7.080;2022-09-29T17:03:22;12.30;99.90
27900;DHT22;15243;50.726;7.080;2022-09-29T17:06:10;12.20;99.90
27900;DHT22;15243;50.726;7.080;2022-09-29T17:08:57;12.00;99.90
27900;DHT22;15243;50.726;7.080;2022-09-29T17:11:25;12.00;99.90
27900;DHT22;15243;50.726;7.080;2022-09-29T17:13:53;11.90;99.90
27900;DHT22;15243;50.726;7.080;2022-09-29T17:16:24;11.90;99.90
27900;DHT22;15243;50.726;7.080;2022-09-29T17:18:52;11.90;99.90
27900;DHT22;15243;50.726;7.080;2022-09-29T17:21:19;11.80;99.90
27900;DHT22;15243;50.726;7.080;2022-09-29T17:23:46;11.80;99.90
27900;DHT22;15243;50.726;7.080;2022-09-29T17:26:23;11.70;99.90
27900;DHT22;15243;50.726;7.080;2022-09-29T17:29:10;11.60;99.90
27900;DHT22;15243;50.726;7.080;2022-09-29T17:31:37;11.40;99.90
27900;DHT22;15243;50.726;7.080;2022-09-29T17:34:04;11.30;99.90
27900;DHT22;15243;50.726;7.080;2022-09-29T17:36:34;11.30;99.90
27900;DHT22;15243;50.726;7.080;2022-09-29T17:39:02;11.20;99.90
27900;DHT22;15243;50.726;7.080;2022-09-29T17:41:29;11.20;99.90
27900;DHT22;15243;50.726;7.080;2022-09-29T17:43:57;11.00;99.90
27900;DHT22;15243;50.726;7.080;2022-09-29T17:46:24;10.90;99.90
27900;DHT22;15243;50.726;7.080;2022-09-29T17:48:51;11.00;99.90
27900;DHT22;15243;50.726;7.080;2022-09-29T17:51:18;10.90;99.90
27900;DHT22;15243;50.726;7.080;2022-09-29T17:53:45;10.80;99.90
27900;DHT22;15243;50.726;7.080;2022-09-29T17:56:20;10.70;99.90
27900;DHT22;15243;50.726;7.080;2022-09-29T17:58:48;10.60;99.90
27900;DHT22;15243;50.726;7.080;2022-09-29T18:01:18;10.50;99.90
27900;DHT22;15243;50.726;7.080;2022-09-29T18:03:46;10.50;99.90
27900;DHT22;15243;50.726;7.080;2022-09-29T18:06:17;10.40;99.90
27900;DHT22;15243;50.726;7.080;2022-09-29T18:08:48;10.40;99.90
27900;DHT22;15243;50.726;7.080;2022-09-29T18:11:23;10.40;99.90
27900;DHT22;15243;50.726;7.080;2022-09-29T18:13:51;10.40;99.90
27900;DHT22;15243;50.726;7.080;2022-09-29T18:16:21;10.30;99.90
27900;DHT22;15243;50.726;7.080;2022-09-29T18:18:48;10.20;99.90
27900;DHT22;15243;50.726;7.080;2022-09-29T18:21:23;10.20;99.90
27900;DHT22;15243;50.726;7.080;2022-09-29T18:23:50;10.30;99.90
27900;DHT22;15243;50.726;7.080;2022-09-29T18:26:17;10.20;99.90
27900;DHT22;15243;50.726;7.080;2022-09-29T18:28:44;10.20;99.90
27900;DHT22;15243;50.726;7.080;2022-09-29T18:31:24;10.10;99.90
27900;DHT22;15243;50.726;7.080;2022-09-29T18:33:52;10.30;99.90
27900;DHT22;15243;50.726;7.080;2022-09-29T18:36:20;10.30;99.90
27900;DHT22;15243;50.726;7.080;2022-09-29T18:38:47;10.20;99.90
27900;DHT22;15243;50.726;7.080;2022-09-29T18:41:17;10.20;99.90
27900;DHT22;15243;50.726;7.080;2022-09-29T18:43:46;10.20;99.90
27900;DHT22;15243;50.726;7.080;2022-09-29T18:46:14;10.10;99.90
27900;DHT22;15243;50.726;7.080;2022-09-29T18:48:41;10.00;99.90
27900;DHT22;15243;50.726;7.080;2022-09-29T18:51:08;10.00;99.90
27900;DHT22;15243;50.726;7.080;2022-09-29T18:53:39;10.00;99.90
27900;DHT22;15243;50.726;7.080;2022-09-29T18:56:14;10.00;99.90
27900;DHT22;15243;50.726;7.080;2022-09-29T18:58:44;9.90;99.90
27900;DHT22;15243;50.726;7.080;2022-09-29T19:01:22;9.80;99.90
27900;DHT22;15243;50.726;7.080;2022-09-29T19:03:50;9.70;99.90
27900;DHT22;15243;50.726;7.080;2022-09-29T19:06:17;9.60;99.90
27900;DHT22;15243;50.726;7.080;2022-09-29T19:08:44;9.60;99.90
27900;DHT22;15243;50.726;7.080;2022-09-29T19:11:23;9.50;99.90
27900;DHT22;15243;50.726;7.080;2022-09-29T19:13:51;9.50;99.90
27900;DHT22;15243;50.726;7.080;2022-09-29T19:16:22;9.50;99.90
27900;DHT22;15243;50.726;7.080;2022-09-29T19:18:49;9.40;99.90
27900;DHT22;15243;50.726;7.080;2022-09-29T19:21:16;9.30;99.90
27900;DHT22;15243;50.726;7.080;2022-09-29T19:23:43;9.20;99.90
27900;DHT22;15243;50.726;7.080;2022-09-29T19:26:17;9.20;99.90
27900;DHT22;15243;50.726;7.080;2022-09-29T19:28:45;9.20;99.90
27900;DHT22;15243;50.726;7.080;2022-09-29T19:31:17;9.00;99.90
27900;DHT22;15243;50.726;7.080;2022-09-29T19:33:45;9.10;99.90
27900;DHT22;15243;50.726;7.080;2022-09-29T19:36:14;9.00;99.90
27900;DHT22;15243;50.726;7.080;2022-09-29T19:38:42;8.90;99.90
27900;DHT22;15243;50.726;7.080;2022-09-29T19:41:21;9.00;99.90
27900;DHT22;15243;50.726;7.080;2022-09-29T19:43:49;9.00;99.90
27900;DHT22;15243;50.726;7.080;2022-09-29T19:46:18;9.00;99.90
27900;DHT22;15243;50.726;7.080;2022-09-29T19:48:46;8.90;99.90
27900;DHT22;15243;50.726;7.080;2022-09-29T19:51:14;8.80;99.90
27900;DHT22;15243;50.726;7.080;2022-09-29T19:54:03;8.80;99.90
27900;DHT22;15243;50.726;7.080;2022-09-29T19:56:39;8.80;99.90
27900;DHT22;15243;50.726;7.080;2022-09-29T19:59:09;8.90;99.90
27900;DHT22;15243;50.726;7.080;2022-09-29T20:01:36;9.00;99.90
27900;DHT22;15243;50.726;7.080;2022-09-29T20:04:04;9.00;99.90
27900;DHT22;15243;50.726;7.080;2022-09-29T20:06:31;9.00;99.90
27900;DHT22;15243;50.726;7.080;2022-09-29T20:09:03;9.00;99.90
27900;DHT22;15243;50.726;7.080;2022-09-29T20:11:30;9.00;99.90
27900;DHT22;15243;50.726;7.080;2022-09-29T20:13:59;8.90;99.90
27900;DHT22;15243;50.726;7.080;2022-09-29T20:16:29;8.80;99.90
27900;DHT22;15243;50.726;7.080;2022-09-29T20:18:56;8.90;99.90
27900;DHT22;15243;50.726;7.080;2022-09-29T20:21:23;8.80;99.90
27900;DHT22;15243;50.726;7.080;2022-09-29T20:23:51;8.80;99.90
27900;DHT22;15243;50.726;7.080;2022-09-29T20:26:21;8.90;99.90
27900;DHT22;15243;50.726;7.080;2022-09-29T20:28:51;9.00;99.90
27900;DHT22;15243;50.726;7.080;2022-09-29T20:31:19;9.00;99.90
27900;DHT22;15243;50.726;7.080;2022-09-29T20:33:47;9.00;99.90
27900;DHT22;15243;50.726;7.080;2022-09-29T20:36:15;9.00;99.90
27900;DHT22;15243;50.726;7.080;2022-09-29T20:38:44;9.00;99.90
27900;DHT22;15243;50.726;7.080;2022-09-29T20:41:14;9.10;99.90
27900;DHT22;15243;50.726;7.080;2022-09-29T20:43:42;9.00;99.90
27900;DHT22;15243;50.726;7.080;2022-09-29T20:46:12;9.00;99.90
27900;DHT22;15243;50.726;7.080;2022-09-29T20:48:40;9.00;99.90
27900;DHT22;15243;50.726;7.080;2022-09-29T20:51:10;9.00;99.90
27900;DHT22;15243;50.726;7.080;2022-09-29T20:53:55;9.10;99.90
27900;DHT22;15243;50.726;7.080;2022-09-29T20:56:24;9.00;99.90
27900;DHT22;15243;50.726;7.080;2022-09-29T20:58:58;9.10;99.90
27900;DHT22;15243;50.726;7.080;2022-09-29T21:01:27;9.10;99.90
27900;DHT22;15243;50.726;7.080;2022-09-29T21:03:55;9.10;99.90
27900;DHT22;15243;50.726;7.080;2022-09-29T21:06:28;9.10;99.90
27900;DHT22;15243;50.726;7.080;2022-09-29T21:08:59;9.00;99.90
27900;DHT22;15243;50.726;7.080;2022-09-29T21:11:26;9.00;99.90
27900;DHT22;15243;50.726;7.080;2022-09-29T21:13:54;9.00;99.90
27900;DHT22;15243;50.726;7.080;2022-09-29T21:16:23;9.00;99.90
27900;DHT22;15243;50.726;7.080;2022-09-29T21:18:52;9.10;99.90
27900;DHT22;15243;50.726;7.080;2022-09-29T21:21:19;9.10;99.90
27900;DHT22;15243;50.726;7.080;2022-09-29T21:23:46;9.10;99.90
27900;DHT22;15243;50.726;7.080;2022-09-29T21:26:16;9.10;99.90
27900;DHT22;15243;50.726;7.080;2022-09-29T21:28:49;9.10;99.90
27900;DHT22;15243;50.726;7.080;2022-09-29T21:31:18;9.00;99.90
27900;DHT22;15243;50.726;7.080;2022-09-29T21:33:50;9.00;99.90
27900;DHT22;15243;50.726;7.080;2022-09-29T21:36:16;9.00;99.90
27900;DHT22;15243;50.726;7.080;2022-09-29T21:38:44;9.10;99.90
27900;DHT22;15243;50.726;7.080;2022-09-29T21:41:19;9.10;99.90
27900;DHT22;15243;50.726;7.080;2022-09-29T21:43:52;9.10;99.90
27900;DHT22;15243;50.726;7.080;2022-09-29T21:46:22;9.10;99.90
27900;DHT22;15243;50.726;7.080;2022-09-29T21:48:50;9.10;99.90
27900;DHT22;15243;50.726;7.080;2022-09-29T21:51:26;8.90;99.90
27900;DHT22;15243;50.726;7.080;2022-09-29T21:53:56;8.90;99.90
27900;DHT22;15243;50.726;7.080;2022-09-29T21:56:27;8.90;99.90
27900;DHT22;15243;50.726;7.080;2022-09-29T21:58:55;8.90;99.90
27900;DHT22;15243;50.726;7.080;2022-09-29T22:01:22;8.90;99.90
27900;DHT22;15243;50.726;7.080;2022-09-29T22:03:50;8.90;99.90
27900;DHT22;15243;50.726;7.080;2022-09-29T22:06:23;8.90;99.90
27900;DHT22;15243;50.726;7.080;2022-09-29T22:08:51;8.80;99.90
27900;DHT22;15243;50.726;7.080;2022-09-29T22:11:20;8.80;99.90
27900;DHT22;15243;50.726;7.080;2022-09-29T22:13:48;8.70;99.90
27900;DHT22;15243;50.726;7.080;2022-09-29T22:16:17;8.70;99.90
27900;DHT22;15243;50.726;7.080;2022-09-29T22:18:48;8.70;99.90
27900;DHT22;15243;50.726;7.080;2022-09-29T22:21:30;8.70;99.90
27900;DHT22;15243;50.726;7.080;2022-09-29T22:24:00;8.70;99.90
27900;DHT22;15243;50.726;7.080;2022-09-29T22:26:29;8.70;99.90
27900;DHT22;15243;50.726;7.080;2022-09-29T22:28:58;8.70;99.90
27900;DHT22;15243;50.726;7.080;2022-09-29T22:31:28;8.70;99.90
27900;DHT22;15243;50.726;7.080;2022-09-29T22:33:57;8.70;99.90
27900;DHT22;15243;50.726;7.080;2022-09-29T22:36:26;8.80;99.90
27900;DHT22;15243;50.726;7.080;2022-09-29T22:38:54;8.70;99.90
27900;DHT22;15243;50.726;7.080;2022-09-29T22:41:21;8.60;99.90
27900;DHT22;15243;50.726;7.080;2022-09-29T22:43:54;8.60;99.90
27900;DHT22;15243;50.726;7.080;2022-09-29T22:46:22;8.50;99.90
27900;DHT22;15243;50.726;7.080;2022-09-29T22:48:50;8.50;99.90
27900;DHT22;15243;50.726;7.080;2022-09-29T22:51:17;8.40;99.90
27900;DHT22;15243;50.726;7.080;2022-09-29T22:53:44;8.40;99.90
27900;DHT22;15243;50.726;7.080;2022-09-29T22:56:14;8.30;99.90
27900;DHT22;15243;50.726;7.080;2022-09-29T22:58:41;8.30;99.90
27900;DHT22;15243;50.726;7.080;2022-09-29T23:01:11;8.30;99.90
27900;DHT22;15243;50.726;7.080;2022-09-29T23:03:40;8.20;99.90
27900;DHT22;15243;50.726;7.080;2022-09-29T23:06:08;8.10;99.90
27900;DHT22;15243;50.726;7.080;2022-09-29T23:08:35;8.10;99.90
27900;DHT22;15243;50.726;7.080;2022-09-29T23:11:03;8.00;99.90
27900;DHT22;15243;50.726;7.080;2022-09-29T23:13:34;8.00;99.90
27900;DHT22;15243;50.726;7.080;2022-09-29T23:16:04;8.00;99.90
27900;DHT22;15243;50.726;7.080;2022-09-29T23:18:37;7.90;99.90
27900;DHT22;15243;50.726;7.080;2022-09-29T23:21:15;7.90;99.90
27900;DHT22;15243;50.726;7.080;2022-09-29T23:23:46;7.90;99.90
27900;DHT22;15243;50.726;7.080;2022-09-29T23:26:13;7.90;99.90
27900;DHT22;15243;50.726;7.080;2022-09-29T23:28:41;7.80;99.90
27900;DHT22;15243;50.726;7.080;2022-09-29T23:31:09;7.80;99.90
27900;DHT22;15243;50.726;7.080;2022-09-29T23:33:36;7.70;99.90
27900;DHT22;15243;50.726;7.080;2022-09-29T23:36:13;7.70;99.90
27900;DHT22;15243;50.726;7.080;2022-09-29T23:38:42;7.60;99.90
27900;DHT22;15243;50.726;7.080;2022-09-29T23:41:28;7.60;99.90
27900;DHT22;15243;50.726;7.080;2022-09-29T23:43:58;7.60;99.90
27900;DHT22;15243;50.726;7.080;2022-09-29T23:46:27;7.60;99.90
27900;DHT22;15243;50.726;7.080;2022-09-29T23:49:01;7.50;99.90
27900;DHT22;15243;50.726;7.080;2022-09-29T23:51:29;7.50;99.90
27900;DHT22;15243;50.726;7.080;2022-09-29T23:53:58;7.40;99.90
27900;DHT22;15243;50.726;7.080;2022-09-29T23:56:26;7.40;99.90
27900;DHT22;15243;50.726;7.080;2022-09-29T23:58:53;7.30;99.90
